PWSweather.com
Personal Weather Stations
Station Observations
KAZPHOEN90
RayThunderhill, Phoenix, AZ

RayThunderhillPhoenix, AZ

Lat: 33.312, Lon: -112.029

Elevation: 1260

Station Type: Davis Vantage VUE

High Low Average
Temperature 96.4°F35.8°F 57.6°F14.2°F 77.2°F25.1°F
Dew Point 33.7°F0.9°F 10.8°F-11.8°F 26.0°F-3.3°F
Winds 3.0 mph SE4.8 mph SE Calm Calm 0.3 mph 0.5 mph
Wind Gusts 6.0 mph9.7 mph -- 0.8 mph1.3 mph
Humidity 40% 5% 18%
Pressure 30.00 in1015.90 in 29.84 in1010.50 in -
Precipitation 0.00 in0.00 in - -
Hour Temp Dew Point Humidity Winds Wind Gusts Pressure Precip Precip Rate Daily Precip Total
12:00 AM 67.4°F19.7°C 29.4°F-1.4°C 24% Calm Calm -- 29.92 in1013.2 mb - 0.00 in0.0 mm 0.00 in0.0 mm
12:15 AM 65.9°F18.8°C 29.0°F-1.7°C 25% Calm Calm -- 29.92 in1013.2 mb - 0.00 in0.0 mm 0.00 in0.0 mm
12:30 AM 64.8°F18.2°C 30.0°F-1.1°C 27% Calm Calm -- 29.92 in1013.2 mb - 0.00 in0.0 mm 0.00 in0.0 mm
12:45 AM 64.7°F18.2°C 29.9°F-1.2°C 27% Calm Calm -- 29.92 in1013.2 mb - 0.00 in0.0 mm 0.00 in0.0 mm
01:00 AM 64.5°F18.1°C 28.9°F-1.7°C 26% Calm Calm -- 29.92 in1013.2 mb - 0.00 in0.0 mm 0.00 in0.0 mm
01:15 AM 64.5°F18.1°C 28.8°F-1.8°C 26% Calm Calm -- 29.92 in1013.2 mb - 0.00 in0.0 mm 0.00 in0.0 mm
01:30 AM 65.5°F18.6°C 29.7°F-1.3°C 26% Calm Calm -- 29.92 in1013.2 mb - 0.00 in0.0 mm 0.00 in0.0 mm
01:45 AM 66.8°F19.3°C 28.8°F-1.8°C 24% Calm Calm -- 29.93 in1013.5 mb - 0.00 in0.0 mm 0.00 in0.0 mm
02:00 AM 66.9°F19.4°C 29.9°F-1.2°C 25% Calm Calm -- 29.93 in1013.5 mb - 0.00 in0.0 mm 0.00 in0.0 mm
02:15 AM 66.6°F19.2°C 29.7°F-1.3°C 25% Calm Calm -- 29.93 in1013.5 mb - 0.00 in0.0 mm 0.00 in0.0 mm
02:30 AM 64.7°F18.2°C 29.0°F-1.7°C 26% Calm Calm -- 29.93 in1013.5 mb - 0.00 in0.0 mm 0.00 in0.0 mm
02:45 AM 65.3°F18.5°C 29.5°F-1.4°C 26% Calm Calm -- 29.93 in1013.5 mb - 0.00 in0.0 mm 0.00 in0.0 mm
03:00 AM 65.0°F18.3°C 29.3°F-1.5°C 26% 0.1 mph NNW0.2 kmh NNW 1.0 mph1.6 kmh 29.92 in1013.2 mb - 0.00 in0.0 mm 0.00 in0.0 mm
03:15 AM 65.4°F18.6°C 28.6°F-1.9°C 25% Calm Calm -- 29.92 in1013.2 mb - 0.00 in0.0 mm 0.00 in0.0 mm
03:30 AM 63.8°F17.7°C 29.2°F-1.6°C 27% Calm Calm -- 29.92 in1013.2 mb - 0.00 in0.0 mm 0.00 in0.0 mm
03:45 AM 66.3°F19.1°C 27.3°F-2.6°C 23% Calm Calm -- 29.92 in1013.2 mb - 0.00 in0.0 mm 0.00 in0.0 mm
04:00 AM 65.5°F18.6°C 27.7°F-2.4°C 24% Calm Calm -- 29.92 in1013.2 mb - 0.00 in0.0 mm 0.00 in0.0 mm
04:15 AM 65.6°F18.7°C 28.8°F-1.8°C 25% Calm Calm -- 29.92 in1013.2 mb - 0.00 in0.0 mm 0.00 in0.0 mm
04:30 AM 65.2°F18.4°C 27.4°F-2.6°C 24% Calm Calm -- 29.93 in1013.5 mb - 0.00 in0.0 mm 0.00 in0.0 mm
04:45 AM 65.6°F18.7°C 26.8°F-2.9°C 23% Calm Calm -- 29.93 in1013.5 mb - 0.00 in0.0 mm 0.00 in0.0 mm
05:00 AM 64.1°F17.8°C 29.4°F-1.4°C 27% Calm Calm -- 29.94 in1013.9 mb - 0.00 in0.0 mm 0.00 in0.0 mm
05:15 AM 60.8°F16.0°C 32.2°F0.1°C 34% Calm Calm -- 29.94 in1013.9 mb - 0.00 in0.0 mm 0.00 in0.0 mm
05:30 AM 59.0°F15.0°C 32.7°F0.4°C 37% Calm Calm -- 29.94 in1013.9 mb - 0.00 in0.0 mm 0.00 in0.0 mm
05:45 AM 57.6°F14.2°C 33.5°F0.8°C 40% Calm Calm -- 29.95 in1014.2 mb - 0.00 in0.0 mm 0.00 in0.0 mm
06:00 AM 57.6°F14.2°C 30.8°F-0.7°C 36% Calm Calm -- 29.95 in1014.2 mb - 0.00 in0.0 mm 0.00 in0.0 mm
06:15 AM 59.2°F15.1°C 29.4°F-1.4°C 32% 0.5 mph NNE0.8 kmh NNE 2.0 mph3.2 kmh 29.95 in1014.2 mb - 0.00 in0.0 mm 0.00 in0.0 mm
06:30 AM 60.7°F15.9°C 29.0°F-1.7°C 30% 0.1 mph N0.2 kmh N -- 29.95 in1014.2 mb - 0.00 in0.0 mm 0.00 in0.0 mm
06:45 AM 60.9°F16.1°C 30.8°F-0.7°C 32% Calm Calm -- 29.96 in1014.6 mb - 0.00 in0.0 mm 0.00 in0.0 mm
07:00 AM 59.8°F15.4°C 30.6°F-0.8°C 33% Calm Calm -- 29.97 in1014.9 mb - 0.00 in0.0 mm 0.00 in0.0 mm
07:15 AM 59.9°F15.5°C 30.7°F-0.7°C 33% Calm Calm -- 29.97 in1014.9 mb - 0.00 in0.0 mm 0.00 in0.0 mm
07:30 AM 61.5°F16.4°C 29.8°F-1.2°C 30% Calm Calm -- 29.97 in1014.9 mb - 0.00 in0.0 mm 0.00 in0.0 mm
07:45 AM 63.2°F17.3°C 31.3°F-0.4°C 30% Calm Calm -- 29.98 in1015.2 mb - 0.00 in0.0 mm 0.00 in0.0 mm
08:00 AM 65.7°F18.7°C 29.8°F-1.2°C 26% Calm Calm 1.0 mph1.6 kmh 29.98 in1015.2 mb - 0.00 in0.0 mm 0.00 in0.0 mm
08:15 AM 69.7°F20.9°C 31.3°F-0.4°C 24% 0.1 mph ESE0.2 kmh ESE 1.0 mph1.6 kmh 29.98 in1015.2 mb - 0.00 in0.0 mm 0.00 in0.0 mm
08:30 AM 71.7°F22.1°C 33.0°F0.6°C 24% Calm Calm -- 29.99 in1015.6 mb - 0.00 in0.0 mm 0.00 in0.0 mm
08:45 AM 74.7°F23.7°C 29.7°F-1.3°C 19% Calm Calm -- 30.00 in1015.9 mb - 0.00 in0.0 mm 0.00 in0.0 mm
09:00 AM 75.3°F24.1°C 28.8°F-1.8°C 18% Calm Calm 2.0 mph3.2 kmh 30.00 in1015.9 mb - 0.00 in0.0 mm 0.00 in0.0 mm
09:15 AM 76.6°F24.8°C 29.9°F-1.2°C 18% Calm Calm -- 30.00 in1015.9 mb - 0.00 in0.0 mm 0.00 in0.0 mm
09:30 AM 78.0°F25.6°C 29.7°F-1.3°C 17% 0.3 mph WSW0.5 kmh WSW 1.0 mph1.6 kmh 30.00 in1015.9 mb - 0.00 in0.0 mm 0.00 in0.0 mm
09:45 AM 77.5°F25.3°C 30.6°F-0.8°C 18% 1.0 mph SE1.6 kmh SE 2.0 mph3.2 kmh 30.00 in1015.9 mb - 0.00 in0.0 mm 0.00 in0.0 mm
10:00 AM 78.3°F25.7°C 32.6°F0.3°C 19% 0.6 mph SE1.0 kmh SE 1.0 mph1.6 kmh 30.00 in1015.9 mb - 0.00 in0.0 mm 0.00 in0.0 mm
10:15 AM 80.0°F26.7°C 31.3°F-0.4°C 17% Calm Calm -- 29.99 in1015.6 mb - 0.00 in0.0 mm 0.00 in0.0 mm
10:30 AM 81.4°F27.4°C 30.9°F-0.6°C 16% 1.7 mph SSE2.7 kmh SSE 3.0 mph4.8 kmh 29.99 in1015.6 mb - 0.00 in0.0 mm 0.00 in0.0 mm
10:45 AM 82.5°F28.1°C 33.3°F0.7°C 17% 0.2 mph SE0.3 kmh SE 1.0 mph1.6 kmh 29.99 in1015.6 mb - 0.00 in0.0 mm 0.00 in0.0 mm
11:00 AM 83.2°F28.4°C 30.7°F-0.7°C 15% Calm Calm -- 29.99 in1015.6 mb - 0.00 in0.0 mm 0.00 in0.0 mm
11:15 AM 85.1°F29.5°C 30.5°F-0.8°C 14% 0.8 mph E1.3 kmh E 2.0 mph3.2 kmh 29.98 in1015.2 mb - 0.00 in0.0 mm 0.00 in0.0 mm
11:30 AM 85.7°F29.8°C 27.2°F-2.7°C 12% 1.5 mph ESE2.4 kmh ESE 3.0 mph4.8 kmh 29.98 in1015.2 mb - 0.00 in0.0 mm 0.00 in0.0 mm
11:45 AM 86.7°F30.4°C 28.0°F-2.2°C 12% 0.2 mph SE0.3 kmh SE -- 29.97 in1014.9 mb - 0.00 in0.0 mm 0.00 in0.0 mm
12:00 PM 86.9°F30.5°C 33.7°F0.9°C 15% 0.4 mph WSW0.6 kmh WSW 3.0 mph4.8 kmh 29.97 in1014.9 mb - 0.00 in0.0 mm 0.00 in0.0 mm
12:15 PM 88.5°F31.4°C 29.4°F-1.4°C 12% 0.6 mph SE1.0 kmh SE 1.0 mph1.6 kmh 29.97 in1014.9 mb - 0.00 in0.0 mm 0.00 in0.0 mm
12:30 PM 89.9°F32.2°C 30.5°F-0.8°C 12% 0.1 mph W0.2 kmh W 2.0 mph3.2 kmh 29.96 in1014.6 mb - 0.00 in0.0 mm 0.00 in0.0 mm
12:45 PM 90.0°F32.2°C 26.1°F-3.3°C 10% 0.4 mph N0.6 kmh N 1.0 mph1.6 kmh 29.96 in1014.6 mb - 0.00 in0.0 mm 0.00 in0.0 mm
01:00 PM 93.1°F33.9°C 25.9°F-3.4°C 9% 1.0 mph SW1.6 kmh SW 2.0 mph3.2 kmh 29.94 in1013.9 mb - 0.00 in0.0 mm 0.00 in0.0 mm
01:15 PM 93.1°F33.9°C 25.9°F-3.4°C 9% 1.0 mph SSW1.6 kmh SSW 3.0 mph4.8 kmh 29.93 in1013.5 mb - 0.00 in0.0 mm 0.00 in0.0 mm
01:30 PM 93.0°F33.9°C 23.0°F-5.0°C 8% 3.0 mph SE4.8 kmh SE 6.0 mph9.7 kmh 29.92 in1013.2 mb - 0.00 in0.0 mm 0.00 in0.0 mm
01:45 PM 93.2°F34.0°C 20.0°F-6.7°C 7% 1.6 mph S2.6 kmh S 3.0 mph4.8 kmh 29.91 in1012.9 mb - 0.00 in0.0 mm 0.00 in0.0 mm
02:00 PM 93.3°F34.1°C 20.0°F-6.7°C 7% 2.3 mph SW3.7 kmh SW 4.0 mph6.4 kmh 29.90 in1012.5 mb - 0.00 in0.0 mm 0.00 in0.0 mm
02:15 PM 94.4°F34.7°C 20.9°F-6.2°C 7% 0.1 mph WSW0.2 kmh WSW 1.0 mph1.6 kmh 29.89 in1012.2 mb - 0.00 in0.0 mm 0.00 in0.0 mm
02:30 PM 95.7°F35.4°C 21.8°F-5.7°C 7% 0.2 mph N0.3 kmh N 1.0 mph1.6 kmh 29.89 in1012.2 mb - 0.00 in0.0 mm 0.00 in0.0 mm
02:45 PM 94.7°F34.8°C 24.3°F-4.3°C 8% 0.1 mph WSW0.2 kmh WSW 1.0 mph1.6 kmh 29.89 in1012.2 mb - 0.00 in0.0 mm 0.00 in0.0 mm
03:00 PM 96.3°F35.7°C 22.2°F-5.4°C 7% 0.3 mph ESE0.5 kmh ESE 1.0 mph1.6 kmh 29.88 in1011.9 mb - 0.00 in0.0 mm 0.00 in0.0 mm
03:15 PM 95.8°F35.4°C 18.3°F-7.6°C 6% 0.5 mph SE0.8 kmh SE 2.0 mph3.2 kmh 29.87 in1011.5 mb - 0.00 in0.0 mm 0.00 in0.0 mm
03:30 PM 96.4°F35.8°C 18.7°F-7.4°C 6% Calm Calm -- 29.86 in1011.2 mb - 0.00 in0.0 mm 0.00 in0.0 mm
03:45 PM 96.2°F35.7°C 22.2°F-5.4°C 7% 0.6 mph SW1.0 kmh SW 2.0 mph3.2 kmh 29.86 in1011.2 mb - 0.00 in0.0 mm 0.00 in0.0 mm
04:00 PM 96.3°F35.7°C 22.3°F-5.4°C 7% 0.1 mph SE0.2 kmh SE 1.0 mph1.6 kmh 29.85 in1010.8 mb - 0.00 in0.0 mm 0.00 in0.0 mm
04:15 PM 95.6°F35.3°C 21.7°F-5.7°C 7% 0.6 mph N1.0 kmh N 2.0 mph3.2 kmh 29.85 in1010.8 mb - 0.00 in0.0 mm 0.00 in0.0 mm
04:30 PM 95.7°F35.4°C 21.8°F-5.7°C 7% 0.3 mph ESE0.5 kmh ESE 4.0 mph6.4 kmh 29.85 in1010.8 mb - 0.00 in0.0 mm 0.00 in0.0 mm
04:45 PM 94.9°F34.9°C 17.6°F-8.0°C 6% 0.3 mph NNE0.5 kmh NNE 1.0 mph1.6 kmh 29.85 in1010.8 mb - 0.00 in0.0 mm 0.00 in0.0 mm
05:00 PM 94.7°F34.8°C 21.1°F-6.1°C 7% 1.0 mph ESE1.6 kmh ESE 3.0 mph4.8 kmh 29.84 in1010.5 mb - 0.00 in0.0 mm 0.00 in0.0 mm
05:15 PM 95.9°F35.5°C 18.3°F-7.6°C 6% 0.1 mph S0.2 kmh S 1.0 mph1.6 kmh 29.84 in1010.5 mb - 0.00 in0.0 mm 0.00 in0.0 mm
05:30 PM 95.5°F35.3°C 18.0°F-7.8°C 6% 1.8 mph W2.9 kmh W 3.0 mph4.8 kmh 29.85 in1010.8 mb - 0.00 in0.0 mm 0.00 in0.0 mm
05:45 PM 93.1°F33.9°C 19.9°F-6.7°C 7% 0.7 mph NW1.1 kmh NW 1.0 mph1.6 kmh 29.84 in1010.5 mb - 0.00 in0.0 mm 0.00 in0.0 mm
06:00 PM 91.8°F33.2°C 15.4°F-9.2°C 6% 0.5 mph NW0.8 kmh NW 3.0 mph4.8 kmh 29.84 in1010.5 mb - 0.00 in0.0 mm 0.00 in0.0 mm
06:15 PM 91.1°F32.8°C 10.8°F-11.8°C 5% 2.0 mph NW3.2 kmh NW 4.0 mph6.4 kmh 29.84 in1010.5 mb - 0.00 in0.0 mm 0.00 in0.0 mm
06:30 PM 89.1°F31.7°C 17.0°F-8.3°C 7% 1.0 mph NW1.6 kmh NW 2.0 mph3.2 kmh 29.84 in1010.5 mb - 0.00 in0.0 mm 0.00 in0.0 mm
06:45 PM 88.0°F31.1°C 16.2°F-8.8°C 7% 0.7 mph NW1.1 kmh NW 1.0 mph1.6 kmh 29.85 in1010.8 mb - 0.00 in0.0 mm 0.00 in0.0 mm
07:00 PM 86.4°F30.2°C 18.1°F-7.7°C 8% Calm Calm -- 29.85 in1010.8 mb - 0.00 in0.0 mm 0.00 in0.0 mm
07:15 PM 85.6°F29.8°C 14.4°F-9.8°C 7% Calm Calm -- 29.85 in1010.8 mb - 0.00 in0.0 mm 0.00 in0.0 mm
07:30 PM 85.5°F29.7°C 10.9°F-11.7°C 6% 0.1 mph NW0.2 kmh NW -- 29.85 in1010.8 mb - 0.00 in0.0 mm 0.00 in0.0 mm
07:45 PM 84.6°F29.2°C 13.7°F-10.2°C 7% Calm Calm -- 29.86 in1011.2 mb - 0.00 in0.0 mm 0.00 in0.0 mm
08:00 PM 82.5°F28.1°C 18.0°F-7.8°C 9% Calm Calm -- 29.86 in1011.2 mb - 0.00 in0.0 mm 0.00 in0.0 mm
08:15 PM 80.0°F26.7°C 20.7°F-6.3°C 11% Calm Calm -- 29.86 in1011.2 mb - 0.00 in0.0 mm 0.00 in0.0 mm
08:30 PM 78.1°F25.6°C 19.2°F-7.1°C 11% Calm Calm -- 29.87 in1011.5 mb - 0.00 in0.0 mm 0.00 in0.0 mm
08:45 PM 77.6°F25.3°C 22.8°F-5.1°C 13% Calm Calm -- 29.87 in1011.5 mb - 0.00 in0.0 mm 0.00 in0.0 mm
09:00 PM 75.4°F24.1°C 24.5°F-4.2°C 15% Calm Calm -- 29.88 in1011.9 mb - 0.00 in0.0 mm 0.00 in0.0 mm
09:15 PM 72.9°F22.7°C 24.1°F-4.4°C 16% Calm Calm -- 29.88 in1011.9 mb - 0.00 in0.0 mm 0.00 in0.0 mm
09:30 PM 72.3°F22.4°C 26.4°F-3.1°C 18% Calm Calm -- 29.88 in1011.9 mb - 0.00 in0.0 mm 0.00 in0.0 mm
09:45 PM 71.3°F21.8°C 28.1°F-2.2°C 20% Calm Calm -- 29.88 in1011.9 mb - 0.00 in0.0 mm 0.00 in0.0 mm
10:00 PM 72.4°F22.4°C 26.5°F-3.1°C 18% Calm Calm -- 29.89 in1012.2 mb - 0.00 in0.0 mm 0.00 in0.0 mm
10:15 PM 71.4°F21.9°C 27.0°F-2.8°C 19% Calm Calm -- 29.89 in1012.2 mb - 0.00 in0.0 mm 0.00 in0.0 mm
10:30 PM 71.2°F21.8°C 26.8°F-2.9°C 19% Calm Calm -- 29.89 in1012.2 mb - 0.00 in0.0 mm 0.00 in0.0 mm
10:45 PM 69.4°F20.8°C 25.3°F-3.7°C 19% Calm Calm -- 29.89 in1012.2 mb - 0.00 in0.0 mm 0.00 in0.0 mm
11:00 PM 68.5°F20.3°C 27.0°F-2.8°C 21% Calm Calm -- 29.89 in1012.2 mb - 0.00 in0.0 mm 0.00 in0.0 mm
11:15 PM 67.9°F19.9°C 27.6°F-2.4°C 22% Calm Calm -- 29.89 in1012.2 mb - 0.00 in0.0 mm 0.00 in0.0 mm
11:30 PM 68.3°F20.2°C 26.8°F-2.9°C 21% Calm Calm -- 29.90 in1012.5 mb - 0.00 in0.0 mm 0.00 in0.0 mm
11:45 PM 68.3°F20.2°C 26.8°F-2.9°C 21% Calm Calm -- 29.90 in1012.5 mb - 0.00 in0.0 mm 0.00 in0.0 mm